Time;durP1;ratioP1;P1;durP2;ratioP2;P2;SDS_P1;SDS_P2;PMS_P1;PMS_P2;Temp;Humidity;BMP_temperature;BMP_pressure;BME280_temperature;BME280_humidity;BME280_pressure;Samples;Min_cycle;Max_cycle;Signal;HPM_P1;HPM_P2
2021/05/15 00:01:45;;;;;;;10.40;9.50;;;;;;;13.21;100.00;99521.47;20930632;28;20219;-62
2021/05/15 00:11:46;;;;;;;10.20;9.23;;;;;;;13.17;100.00;99525.38;20947830;28;20215;-61
2021/05/15 00:21:47;;;;;;;12.50;11.33;;;;;;;13.34;100.00;99526.59;20845247;28;20227;-61
2021/05/15 00:31:48;;;;;;;11.27;10.27;;;;;;;13.33;100.00;99536.47;20937803;28;20322;-61
2021/05/15 00:41:48;;;;;;;11.00;9.83;;;;;;;13.30;100.00;99536.72;20931127;28;20223;-74
2021/05/15 00:51:49;;;;;;;10.73;9.83;;;;;;;13.12;100.00;99541.00;20942176;28;20219;-64
2021/05/15 01:01:49;;;;;;;11.87;10.77;;;;;;;12.92;100.00;99542.69;20860977;28;20306;-75
2021/05/15 01:11:51;;;;;;;9.07;8.27;;;;;;;12.74;100.00;99538.09;20849297;28;20237;-68
2021/05/15 01:21:52;;;;;;;9.63;8.83;;;;;;;12.83;100.00;99539.97;20894899;28;20254;-66
2021/05/15 01:31:52;;;;;;;7.83;7.13;;;;;;;12.97;100.00;99539.63;20917826;28;20712;-61
2021/05/15 01:41:53;;;;;;;6.00;5.50;;;;;;;13.12;99.37;99549.03;20936364;28;20673;-62
2021/05/15 01:51:53;;;;;;;7.67;6.70;;;;;;;13.24;98.77;99542.63;20839202;28;20315;-62
2021/05/15 02:01:54;;;;;;;7.77;7.07;;;;;;;13.17;98.44;99541.44;20865886;28;20319;-64
2021/05/15 02:11:54;;;;;;;6.87;6.23;;;;;;;13.21;97.44;99542.88;20858567;28;20856;-65
2021/05/15 02:21:55;;;;;;;6.70;6.10;;;;;;;13.25;96.74;99541.66;20881905;28;20822;-62
2021/05/15 02:31:55;;;;;;;5.37;4.87;;;;;;;13.30;95.68;99551.94;20863915;28;20224;-62
2021/05/15 02:41:56;;;;;;;4.73;4.37;;;;;;;13.33;96.11;99547.19;20867198;28;20231;-63
2021/05/15 02:51:56;;;;;;;5.35;4.85;;;;;;;13.36;94.88;99556.78;20869722;28;20235;-69
2021/05/15 03:01:57;;;;;;;4.70;4.30;;;;;;;13.39;95.07;99561.03;20853487;28;20230;-64
2021/05/15 03:11:57;;;;;;;5.10;4.60;;;;;;;13.44;93.75;99569.50;20870243;28;20235;-62
2021/05/15 03:21:58;;;;;;;5.40;4.90;;;;;;;13.53;92.94;99574.03;20849575;28;20239;-65
2021/05/15 03:31:59;;;;;;;4.60;4.20;;;;;;;13.61;91.25;99582.28;20868717;28;20227;-63
2021/05/15 03:42:00;;;;;;;5.13;4.73;;;;;;;13.68;90.85;99588.78;20854846;28;20254;-63
2021/05/15 03:52:00;;;;;;;5.53;5.03;;;;;;;13.74;90.26;99582.88;20918168;28;20231;-64
2021/05/15 04:02:01;;;;;;;6.10;5.20;;;;;;;13.72;88.45;99584.84;20891939;28;20212;-61
2021/05/15 04:12:01;;;;;;;7.03;4.70;;;;;;;13.73;86.95;99593.75;21049054;28;20222;-61
2021/05/15 04:22:03;;;;;;;4.77;4.37;;;;;;;13.76;85.14;99597.00;21056331;28;20224;-61
2021/05/15 04:32:04;;;;;;;2.73;2.53;;;;;;;13.80;79.87;99593.03;21040339;28;20269;-60
2021/05/15 04:42:04;;;;;;;2.70;2.50;;;;;;;13.77;78.36;99613.91;20959563;28;20457;-65
2021/05/15 04:52:05;;;;;;;3.30;2.50;;;;;;;13.43;79.15;99629.44;20887141;28;20232;-67
2021/05/15 05:02:05;;;;;;;3.10;2.50;;;;;;;13.00;80.80;99609.00;20951503;28;20231;-58
2021/05/15 05:12:06;;;;;;;2.90;2.70;;;;;;;13.02;81.84;99652.59;20993045;28;20222;-59
2021/05/15 05:22:06;;;;;;;2.30;2.20;;;;;;;13.19;81.27;99657.38;21053840;28;20271;-58
2021/05/15 05:32:10;;;;;;;2.67;2.47;;;;;;;13.72;79.30;99659.94;20919868;28;20236;-59
2021/05/15 05:42:11;;;;;;;2.50;2.30;;;;;;;14.24;76.85;99660.66;21042457;28;20224;-59
2021/05/15 05:52:11;;;;;;;2.50;2.30;;;;;;;14.64;76.20;99674.03;21066889;28;20216;-65
2021/05/15 06:02:12;;;;;;;5.03;3.47;;;;;;;14.73;76.60;99673.19;21054228;28;20312;-62
2021/05/15 06:12:15;;;;;;;3.37;3.10;;;;;;;14.57;76.50;99689.84;21069079;28;20486;-62
2021/05/15 06:22:16;;;;;;;3.70;3.40;;;;;;;14.71;76.03;99702.88;21038119;28;20217;-60
2021/05/15 06:32:16;;;;;;;4.17;3.60;;;;;;;14.85;74.74;99711.53;21068248;28;20221;-60
2021/05/15 06:42:17;;;;;;;4.13;3.73;;;;;;;15.61;72.12;99712.44;21045625;28;20481;-60
2021/05/15 06:52:18;;;;;;;3.50;3.30;;;;;;;16.03;70.31;99734.41;21059815;28;20842;-61
2021/05/15 07:02:19;;;;;;;3.23;3.03;;;;;;;15.73;69.56;99730.13;21028255;28;20217;-66
2021/05/15 07:12:21;;;;;;;3.30;3.10;;;;;;;15.85;69.89;99735.16;21055068;28;20282;-61
2021/05/15 07:22:25;;;;;;;3.50;3.30;;;;;;;16.52;68.38;99735.88;21057782;28;20217;-68
2021/05/15 07:32:25;;;;;;;3.40;3.20;;;;;;;17.38;67.92;99749.75;21049054;28;20225;-60
2021/05/15 07:42:26;;;;;;;2.97;2.77;;;;;;;18.17;63.68;99758.56;21061488;28;20228;-62
2021/05/15 07:52:28;;;;;;;2.80;2.60;;;;;;;17.52;63.62;99750.00;21039475;28;20522;-60
2021/05/15 08:02:28;;;;;;;3.50;3.20;;;;;;;16.82;65.28;99759.81;21060657;28;20222;-59
2021/05/15 08:12:29;;;;;;;2.67;2.47;;;;;;;17.89;65.42;99754.34;21037147;28;20241;-63
2021/05/15 08:22:29;;;;;;;2.50;2.40;;;;;;;17.89;61.59;99775.94;21014774;28;20221;-63
2021/05/15 08:32:30;;;;;;;2.63;2.43;;;;;;;17.63;63.61;99770.53;20935291;28;20243;-63
2021/05/15 08:42:35;;;;;;;2.93;2.17;;;;;;;17.71;61.46;99775.16;20982705;28;20892;-60
2021/05/15 08:52:41;;;;;;;1.90;1.80;;;;;;;17.97;57.60;99767.91;21008863;28;20229;-58
2021/05/15 09:02:43;;;;;;;2.50;1.40;;;;;;;18.18;57.03;99771.06;21046645;28;20209;-58
2021/05/15 09:12:44;;;;;;;2.60;1.53;;;;;;;18.17;55.76;99758.56;21061323;28;20232;-58
2021/05/15 09:22:44;;;;;;;4.13;1.90;;;;;;;18.17;56.49;99758.56;21065612;28;20707;-58
2021/05/15 09:32:45;;;;;;;2.33;1.60;;;;;;;18.56;54.61;99774.28;21067087;28;20593;-59
2021/05/15 09:42:56;;;;;;;2.47;1.93;;;;;;;18.59;53.14;99747.84;21066111;28;20304;-61
2021/05/15 09:53:12;;;;;;;2.20;2.07;;;;;;;18.96;51.95;99769.03;21066168;28;20218;-61
2021/05/15 10:03:20;;;;;;;2.03;1.60;;;;;;;19.24;52.73;99768.75;21065616;28;20720;-61
2021/05/15 10:13:21;;;;;;;4.30;1.77;;;;;;;18.68;52.04;99773.88;21062726;28;20313;-59
2021/05/15 10:23:39;;;;;;;3.23;1.80;;;;;;;18.53;50.97;99742.19;21013547;28;20302;-58
2021/05/15 10:33:41;;;;;;;4.40;2.10;;;;;;;19.19;50.94;99790.06;20996064;28;20298;-59
2021/05/15 10:43:42;;;;;;;3.00;2.00;;;;;;;19.51;51.25;99784.69;20995341;28;20207;-59
2021/05/15 10:53:53;;;;;;;8.57;3.13;;;;;;;19.88;48.23;99753.53;20994702;28;20259;-58
2021/05/15 11:03:54;;;;;;;2.73;2.17;;;;;;;20.31;48.73;99785.59;20993375;28;20639;-58
2021/05/15 11:13:54;;;;;;;2.60;2.40;;;;;;;19.64;49.98;99792.31;21048715;28;20220;-58
2021/05/15 11:23:56;;;;;;;3.50;2.70;;;;;;;19.38;49.80;99778.91;21076388;28;20220;-58
2021/05/15 11:34:09;;;;;;;3.50;2.30;;;;;;;19.32;47.92;99785.81;21075680;28;20577;-58
2021/05/15 11:44:10;;;;;;;3.73;2.20;;;;;;;19.62;49.35;99775.38;20990798;28;20216;-59
2021/05/15 11:54:12;;;;;;;2.43;1.67;;;;;;;20.30;48.99;99789.31;21065254;28;20219;-59
2021/05/15 12:04:17;;;;;;;3.73;1.77;;;;;;;21.43;48.39;99781.69;21069723;28;20221;-59
2021/05/15 12:14:19;;;;;;;5.57;2.43;;;;;;;21.69;46.08;99781.31;21071875;28;20226;-59
2021/05/15 12:24:20;;;;;;;2.10;1.90;;;;;;;21.37;46.62;99776.97;21071840;28;20263;-61
2021/05/15 12:34:20;;;;;;;2.07;1.87;;;;;;;21.37;47.21;99776.97;21065234;28;20222;-58
2021/05/15 12:44:21;;;;;;;2.10;1.60;;;;;;;21.62;48.34;99759.44;21065380;28;20451;-54
2021/05/15 12:54:26;;;;;;;1.57;1.47;;;;;;;21.59;47.67;99754.41;21063514;28;20706;-54
2021/05/15 13:04:26;;;;;;;1.77;1.67;;;;;;;21.60;46.13;99747.94;21064119;28;20263;-55
2021/05/15 13:14:33;;;;;;;1.87;1.33;;;;;;;21.26;47.30;99726.66;20976095;28;20861;-58
2021/05/15 13:24:38;;;;;;;2.87;1.60;;;;;;;21.24;46.16;99714.31;20904788;28;20304;-59
2021/05/15 13:34:42;;;;;;;1.70;1.60;;;;;;;21.44;46.39;99718.22;20914773;28;20258;-54
2021/05/15 13:44:43;;;;;;;2.30;1.50;;;;;;;21.56;47.00;99716.75;20917318;28;20308;-54
2021/05/15 13:54:43;;;;;;;3.10;1.30;;;;;;;20.89;46.70;99716.53;20925198;28;20238;-55
2021/05/15 14:04:44;;;;;;;1.37;1.27;;;;;;;20.83;46.28;99701.00;20940622;28;20393;-56
2021/05/15 14:14:44;;;;;;;1.40;1.30;;;;;;;21.08;46.81;99702.53;20935568;28;20317;-55
2021/05/15 14:24:45;;;;;;;1.30;1.30;;;;;;;20.96;47.59;99703.97;20938169;28;20674;-56
2021/05/15 14:34:46;;;;;;;2.40;1.50;;;;;;;21.09;46.96;99698.78;20974364;28;20248;-56
2021/05/15 14:44:48;;;;;;;5.23;1.20;;;;;;;21.05;46.48;99681.19;20929190;28;21076;-55
2021/05/15 14:54:48;;;;;;;1.70;1.60;;;;;;;21.07;46.83;99694.56;20979541;28;20233;-57
2021/05/15 15:04:49;;;;;;;2.13;1.40;;;;;;;21.03;46.20;99685.94;21002399;28;20226;-56
2021/05/15 15:14:49;;;;;;;1.17;1.10;;;;;;;20.92;46.30;99690.94;21017469;28;20464;-54
2021/05/15 15:24:50;;;;;;;1.03;1.03;;;;;;;20.92;45.52;99678.22;21018244;28;21022;-54
2021/05/15 15:34:51;;;;;;;0.83;0.83;;;;;;;20.76;44.61;99662.09;20998479;28;20247;-54
2021/05/15 15:44:51;;;;;;;1.57;0.97;;;;;;;20.96;45.10;99660.56;21015384;28;20492;-54
2021/05/15 15:54:52;;;;;;;1.17;0.93;;;;;;;20.99;44.58;99660.22;21001211;28;20254;-54
2021/05/15 16:04:52;;;;;;;8.20;6.70;;;;;;;20.76;44.14;99653.94;21014562;28;20283;-54
2021/05/15 16:14:53;;;;;;;9.63;8.47;;;;;;;20.65;44.83;99651.66;21011287;28;20372;-55
2021/05/15 16:24:54;;;;;;;5.03;2.50;;;;;;;20.52;44.31;99645.97;21011216;28;20293;-55
2021/05/15 16:34:54;;;;;;;1.40;1.30;;;;;;;20.12;45.28;99635.13;21010718;28;20237;-58
2021/05/15 16:44:55;;;;;;;1.47;1.43;;;;;;;20.19;45.37;99634.41;21011627;28;20595;-55
2021/05/15 16:54:56;;;;;;;2.67;1.80;;;;;;;20.65;45.32;99635.38;21010576;28;20234;-59
2021/05/15 17:04:56;;;;;;;2.13;1.93;;;;;;;21.93;43.85;99627.06;21009331;28;20866;-62
2021/05/15 17:14:57;;;;;;;2.10;1.93;;;;;;;22.53;42.79;99628.66;21008998;28;20713;-56
2021/05/15 17:24:58;;;;;;;1.27;1.17;;;;;;;23.44;41.92;99621.56;21007116;28;20229;-58
2021/05/15 17:34:59;;;;;;;2.00;1.73;;;;;;;22.61;42.53;99619.53;21019787;28;20990;-56
2021/05/15 17:45:01;;;;;;;1.20;1.20;;;;;;;21.76;43.41;99616.56;21025843;28;20698;-55
2021/05/15 17:55:03;;;;;;;1.00;1.00;;;;;;;21.73;43.80;99625.09;21024459;28;20629;-57
2021/05/15 18:05:05;;;;;;;2.97;2.73;;;;;;;21.10;44.17;99629.94;21023356;28;20346;-56
2021/05/15 18:15:06;;;;;;;2.33;2.23;;;;;;;20.04;45.96;99637.03;21021936;28;20279;-57
2021/05/15 18:25:10;;;;;;;2.70;2.17;;;;;;;18.94;47.12;99633.19;21019076;28;20222;-56
2021/05/15 18:35:10;;;;;;;6.23;4.67;;;;;;;18.07;49.67;99630.94;21019240;28;20238;-56
2021/05/15 18:45:11;;;;;;;3.17;2.87;;;;;;;17.38;52.37;99637.31;21012940;28;20306;-55
2021/05/15 18:55:12;;;;;;;7.67;3.43;;;;;;;16.78;52.89;99634.50;20986083;28;21166;-57
2021/05/15 19:05:14;;;;;;;5.57;3.77;;;;;;;16.33;54.51;99639.03;21006068;28;20340;-57
2021/05/15 19:15:14;;;;;;;5.30;4.80;;;;;;;15.91;56.01;99639.56;20986034;28;20243;-58
2021/05/15 19:25:15;;;;;;;4.83;4.43;;;;;;;15.62;56.44;99642.38;21003051;28;20602;-59
2021/05/15 19:35:15;;;;;;;5.07;4.13;;;;;;;15.23;58.42;99622.78;20986699;28;20342;-57
2021/05/15 19:45:16;;;;;;;7.33;5.30;;;;;;;14.78;60.22;99626.13;20899450;28;20239;-56
2021/05/15 19:55:16;;;;;;;6.03;5.28;;;;;;;14.43;62.02;99628.50;20911591;28;21435;-60
2021/05/15 20:05:18;;;;;;;6.23;5.13;;;;;;;14.10;62.91;99627.03;20902634;28;20769;-58
2021/05/15 20:15:18;;;;;;;5.53;4.77;;;;;;;13.83;64.42;99627.66;20920783;28;20232;-64
2021/05/15 20:25:19;;;;;;;6.07;4.57;;;;;;;13.70;64.70;99633.25;20924693;28;20227;-58
2021/05/15 20:35:20;;;;;;;7.03;4.80;;;;;;;13.53;66.91;99638.38;20921610;28;21036;-55
2021/05/15 20:45:20;;;;;;;6.63;4.70;;;;;;;13.28;66.83;99627.09;20914431;28;20224;-64
2021/05/15 20:55:21;;;;;;;6.07;4.03;;;;;;;13.00;67.63;99625.09;20935005;28;20226;-65
2021/05/15 21:05:21;;;;;;;9.80;6.10;;;;;;;12.78;69.40;99619.84;20988827;28;20484;-67
2021/05/15 21:15:22;;;;;;;7.53;5.53;;;;;;;12.61;70.85;99622.13;20984519;28;20326;-66
2021/05/15 21:25:23;;;;;;;7.57;5.40;;;;;;;12.51;70.90;99613.16;20985190;28;20702;-63
2021/05/15 21:35:24;;;;;;;10.37;6.60;;;;;;;12.43;72.89;99598.72;20984396;28;20219;-68
2021/05/15 21:45:24;;;;;;;7.20;6.50;;;;;;;12.35;72.71;99599.34;20984124;28;20238;-68
2021/05/15 21:55:25;;;;;;;6.63;5.82;;;;;;;12.39;72.66;99586.56;20982482;28;20456;-65
2021/05/15 22:05:26;;;;;;;5.90;5.30;;;;;;;12.43;73.02;99583.53;20983664;28;20264;-68
2021/05/15 22:15:27;;;;;;;6.67;4.67;;;;;;;12.52;73.03;99588.09;20982962;28;20219;-67
2021/05/15 22:25:27;;;;;;;6.03;4.80;;;;;;;12.71;74.10;99575.81;20997862;28;20223;-64
2021/05/15 22:35:29;;;;;;;5.03;4.53;;;;;;;13.05;74.75;99574.63;20997083;28;20235;-65
2021/05/15 22:45:34;;;;;;;4.53;4.13;;;;;;;13.42;73.57;99580.34;20994928;28;20227;-66
2021/05/15 22:55:36;;;;;;;7.27;5.43;;;;;;;13.70;74.32;99590.34;20995738;28;20278;-69
2021/05/15 23:05:37;;;;;;;5.63;4.43;;;;;;;13.92;73.79;99578.53;20995013;28;20269;-64
2021/05/15 23:15:38;;;;;;;6.83;6.00;;;;;;;13.98;74.01;99575.31;20993839;28;20696;-64
2021/05/15 23:25:39;;;;;;;4.83;4.30;;;;;;;13.98;78.55;99569.09;20993663;28;20224;-66
2021/05/15 23:35:39;;;;;;;4.37;3.60;;;;;;;13.92;82.56;99543.66;20992435;28;20250;-65
2021/05/15 23:45:40;;;;;;;3.90;2.87;;;;;;;14.07;81.07;99542.28;20990366;28;20516;-64
2021/05/15 23:55:41;;;;;;;3.97;3.67;;;;;;;14.25;82.29;99566.56;20990760;28;20222;-64
